sensor_id;sensor_type;location;lat;lon;timestamp;P1;durP1;ratioP1;P2;durP2;ratioP2
51332;SDS011;37417;48.118;11.734;2023-03-12T00:01:56;4.00;;;2.10;;
51332;SDS011;37417;48.118;11.734;2023-03-12T00:04:23;3.78;;;2.15;;
51332;SDS011;37417;48.118;11.734;2023-03-12T00:06:49;5.57;;;1.80;;
51332;SDS011;37417;48.118;11.734;2023-03-12T00:09:14;4.20;;;2.45;;
51332;SDS011;37417;48.118;11.734;2023-03-12T00:11:39;3.83;;;1.52;;
51332;SDS011;37417;48.118;11.734;2023-03-12T00:14:04;6.15;;;2.30;;
51332;SDS011;37417;48.118;11.734;2023-03-12T00:16:30;3.08;;;1.60;;
51332;SDS011;37417;48.118;11.734;2023-03-12T00:18:56;2.78;;;1.95;;
51332;SDS011;37417;48.118;11.734;2023-03-12T00:21:21;5.13;;;1.98;;
51332;SDS011;37417;48.118;11.734;2023-03-12T00:23:48;5.80;;;2.25;;
51332;SDS011;37417;48.118;11.734;2023-03-12T00:26:14;3.53;;;1.85;;
51332;SDS011;37417;48.118;11.734;2023-03-12T00:28:39;2.83;;;1.65;;
51332;SDS011;37417;48.118;11.734;2023-03-12T00:34:01;2.03;;;1.27;;
51332;SDS011;37417;48.118;11.734;2023-03-12T00:36:27;2.53;;;1.30;;
51332;SDS011;37417;48.118;11.734;2023-03-12T00:38:54;3.42;;;1.80;;
51332;SDS011;37417;48.118;11.734;2023-03-12T00:41:21;3.08;;;2.20;;
51332;SDS011;37417;48.118;11.734;2023-03-12T00:43:47;3.92;;;1.88;;
51332;SDS011;37417;48.118;11.734;2023-03-12T00:46:13;2.35;;;2.05;;
51332;SDS011;37417;48.118;11.734;2023-03-12T00:48:40;3.38;;;2.40;;
51332;SDS011;37417;48.118;11.734;2023-03-12T00:51:06;3.97;;;2.15;;
51332;SDS011;37417;48.118;11.734;2023-03-12T00:53:31;4.68;;;1.48;;
51332;SDS011;37417;48.118;11.734;2023-03-12T00:55:57;3.80;;;2.13;;
51332;SDS011;37417;48.118;11.734;2023-03-12T00:58:22;3.33;;;1.88;;
51332;SDS011;37417;48.118;11.734;2023-03-12T01:00:48;3.08;;;2.03;;
51332;SDS011;37417;48.118;11.734;2023-03-12T01:03:14;5.18;;;1.95;;
51332;SDS011;37417;48.118;11.734;2023-03-12T01:05:39;2.22;;;1.92;;
51332;SDS011;37417;48.118;11.734;2023-03-12T01:08:05;5.03;;;2.00;;
51332;SDS011;37417;48.118;11.734;2023-03-12T01:10:35;5.97;;;2.17;;
51332;SDS011;37417;48.118;11.734;2023-03-12T01:13:04;3.35;;;1.45;;
51332;SDS011;37417;48.118;11.734;2023-03-12T01:15:30;2.20;;;2.00;;
51332;SDS011;37417;48.118;11.734;2023-03-12T01:17:55;2.47;;;1.45;;
51332;SDS011;37417;48.118;11.734;2023-03-12T01:20:20;2.85;;;2.00;;
51332;SDS011;37417;48.118;11.734;2023-03-12T01:22:47;2.25;;;1.52;;
51332;SDS011;37417;48.118;11.734;2023-03-12T01:25:13;4.35;;;2.22;;
51332;SDS011;37417;48.118;11.734;2023-03-12T01:27:38;3.22;;;1.60;;
51332;SDS011;37417;48.118;11.734;2023-03-12T01:30:04;3.47;;;2.03;;
51332;SDS011;37417;48.118;11.734;2023-03-12T01:32:30;7.35;;;2.38;;
51332;SDS011;37417;48.118;11.734;2023-03-12T01:34:56;3.10;;;1.52;;
51332;SDS011;37417;48.118;11.734;2023-03-12T01:37:22;4.25;;;1.92;;
51332;SDS011;37417;48.118;11.734;2023-03-12T01:39:47;1.98;;;1.40;;
51332;SDS011;37417;48.118;11.734;2023-03-12T01:42:13;3.50;;;1.83;;
51332;SDS011;37417;48.118;11.734;2023-03-12T01:44:48;3.25;;;1.80;;
51332;SDS011;37417;48.118;11.734;2023-03-12T01:47:19;3.28;;;1.73;;
51332;SDS011;37417;48.118;11.734;2023-03-12T01:49:44;2.95;;;1.85;;
51332;SDS011;37417;48.118;11.734;2023-03-12T01:57:38;3.97;;;2.10;;
51332;SDS011;37417;48.118;11.734;2023-03-12T02:00:09;2.28;;;1.73;;
51332;SDS011;37417;48.118;11.734;2023-03-12T02:02:37;2.03;;;1.70;;
51332;SDS011;37417;48.118;11.734;2023-03-12T02:05:06;4.60;;;1.92;;
51332;SDS011;37417;48.118;11.734;2023-03-12T02:07:37;2.17;;;1.75;;
51332;SDS011;37417;48.118;11.734;2023-03-12T02:10:02;4.07;;;2.17;;
51332;SDS011;37417;48.118;11.734;2023-03-12T02:12:28;2.15;;;1.65;;
51332;SDS011;37417;48.118;11.734;2023-03-12T02:14:54;2.72;;;2.15;;
51332;SDS011;37417;48.118;11.734;2023-03-12T02:17:19;1.98;;;1.75;;
51332;SDS011;37417;48.118;11.734;2023-03-12T02:22:32;3.60;;;1.70;;
51332;SDS011;37417;48.118;11.734;2023-03-12T02:25:02;3.67;;;1.80;;
51332;SDS011;37417;48.118;11.734;2023-03-12T02:27:40;4.13;;;1.90;;
51332;SDS011;37417;48.118;11.734;2023-03-12T02:30:06;3.25;;;1.75;;
51332;SDS011;37417;48.118;11.734;2023-03-12T02:32:33;2.30;;;1.75;;
51332;SDS011;37417;48.118;11.734;2023-03-12T02:35:02;2.42;;;1.67;;
51332;SDS011;37417;48.118;11.734;2023-03-12T02:37:28;3.38;;;1.90;;
51332;SDS011;37417;48.118;11.734;2023-03-12T02:39:55;2.47;;;2.20;;
51332;SDS011;37417;48.118;11.734;2023-03-12T02:42:26;5.30;;;2.35;;
51332;SDS011;37417;48.118;11.734;2023-03-12T02:44:51;3.67;;;1.83;;
51332;SDS011;37417;48.118;11.734;2023-03-12T02:47:17;2.22;;;1.70;;
51332;SDS011;37417;48.118;11.734;2023-03-12T02:49:43;3.70;;;1.85;;
51332;SDS011;37417;48.118;11.734;2023-03-12T02:52:08;4.38;;;2.35;;
51332;SDS011;37417;48.118;11.734;2023-03-12T02:54:34;3.45;;;1.65;;
51332;SDS011;37417;48.118;11.734;2023-03-12T02:57:00;3.42;;;1.27;;
51332;SDS011;37417;48.118;11.734;2023-03-12T02:59:25;2.47;;;1.17;;
51332;SDS011;37417;48.118;11.734;2023-03-12T03:01:52;1.80;;;1.45;;
51332;SDS011;37417;48.118;11.734;2023-03-12T03:04:18;12.70;;;2.63;;
51332;SDS011;37417;48.118;11.734;2023-03-12T03:06:44;3.05;;;1.60;;
51332;SDS011;37417;48.118;11.734;2023-03-12T03:09:11;1.92;;;1.20;;
51332;SDS011;37417;48.118;11.734;2023-03-12T03:11:37;6.35;;;1.25;;
51332;SDS011;37417;48.118;11.734;2023-03-12T03:14:02;1.73;;;1.33;;
51332;SDS011;37417;48.118;11.734;2023-03-12T03:16:28;2.83;;;2.15;;
51332;SDS011;37417;48.118;11.734;2023-03-12T03:18:54;3.20;;;1.90;;
51332;SDS011;37417;48.118;11.734;2023-03-12T03:21:19;5.53;;;2.47;;
51332;SDS011;37417;48.118;11.734;2023-03-12T03:23:46;1.75;;;1.23;;
51332;SDS011;37417;48.118;11.734;2023-03-12T03:26:12;1.98;;;1.33;;
51332;SDS011;37417;48.118;11.734;2023-03-12T03:28:39;1.50;;;1.40;;
51332;SDS011;37417;48.118;11.734;2023-03-12T03:31:04;2.80;;;2.30;;
51332;SDS011;37417;48.118;11.734;2023-03-12T03:33:31;3.53;;;1.02;;
51332;SDS011;37417;48.118;11.734;2023-03-12T03:35:58;3.17;;;2.33;;
51332;SDS011;37417;48.118;11.734;2023-03-12T03:38:25;2.22;;;2.03;;
51332;SDS011;37417;48.118;11.734;2023-03-12T03:40:52;2.20;;;2.00;;
51332;SDS011;37417;48.118;11.734;2023-03-12T03:43:18;1.58;;;1.40;;
51332;SDS011;37417;48.118;11.734;2023-03-12T03:45:43;6.10;;;2.47;;
51332;SDS011;37417;48.118;11.734;2023-03-12T03:48:09;4.28;;;2.40;;
51332;SDS011;37417;48.118;11.734;2023-03-12T03:50:38;4.15;;;3.25;;
51332;SDS011;37417;48.118;11.734;2023-03-12T03:53:05;3.22;;;2.55;;
51332;SDS011;37417;48.118;11.734;2023-03-12T03:55:34;4.63;;;3.08;;
51332;SDS011;37417;48.118;11.734;2023-03-12T03:58:01;2.50;;;2.25;;
51332;SDS011;37417;48.118;11.734;2023-03-12T04:00:26;4.38;;;2.92;;
51332;SDS011;37417;48.118;11.734;2023-03-12T04:02:51;3.78;;;2.80;;
51332;SDS011;37417;48.118;11.734;2023-03-12T04:05:17;3.20;;;2.67;;
51332;SDS011;37417;48.118;11.734;2023-03-12T04:07:43;4.07;;;3.10;;
51332;SDS011;37417;48.118;11.734;2023-03-12T04:10:09;4.72;;;2.95;;
51332;SDS011;37417;48.118;11.734;2023-03-12T04:12:35;7.18;;;3.35;;
51332;SDS011;37417;48.118;11.734;2023-03-12T04:15:00;7.97;;;3.72;;
51332;SDS011;37417;48.118;11.734;2023-03-12T04:17:26;5.28;;;3.72;;
51332;SDS011;37417;48.118;11.734;2023-03-12T04:19:51;9.75;;;3.50;;
51332;SDS011;37417;48.118;11.734;2023-03-12T04:22:16;4.03;;;3.22;;
51332;SDS011;37417;48.118;11.734;2023-03-12T04:24:42;4.78;;;3.50;;
51332;SDS011;37417;48.118;11.734;2023-03-12T04:27:07;8.85;;;3.08;;
51332;SDS011;37417;48.118;11.734;2023-03-12T04:29:32;9.38;;;2.80;;
51332;SDS011;37417;48.118;11.734;2023-03-12T04:31:58;6.03;;;4.20;;
51332;SDS011;37417;48.118;11.734;2023-03-12T04:34:23;6.32;;;3.40;;
51332;SDS011;37417;48.118;11.734;2023-03-12T04:36:48;3.80;;;2.95;;
51332;SDS011;37417;48.118;11.734;2023-03-12T04:39:17;4.38;;;2.92;;
51332;SDS011;37417;48.118;11.734;2023-03-12T04:41:44;3.85;;;2.90;;
51332;SDS011;37417;48.118;11.734;2023-03-12T04:44:10;5.50;;;2.90;;
51332;SDS011;37417;48.118;11.734;2023-03-12T04:46:35;5.85;;;3.38;;
51332;SDS011;37417;48.118;11.734;2023-03-12T04:49:01;3.95;;;3.40;;
51332;SDS011;37417;48.118;11.734;2023-03-12T04:51:27;7.15;;;3.13;;
51332;SDS011;37417;48.118;11.734;2023-03-12T04:53:54;6.60;;;4.10;;
51332;SDS011;37417;48.118;11.734;2023-03-12T04:56:20;5.25;;;3.58;;
51332;SDS011;37417;48.118;11.734;2023-03-12T04:58:45;7.13;;;3.30;;
51332;SDS011;37417;48.118;11.734;2023-03-12T05:01:32;5.50;;;3.63;;
51332;SDS011;37417;48.118;11.734;2023-03-12T05:03:57;2.80;;;2.20;;
51332;SDS011;37417;48.118;11.734;2023-03-12T05:06:23;4.70;;;3.47;;
51332;SDS011;37417;48.118;11.734;2023-03-12T05:08:49;5.47;;;3.42;;
51332;SDS011;37417;48.118;11.734;2023-03-12T05:11:15;5.93;;;3.75;;
51332;SDS011;37417;48.118;11.734;2023-03-12T05:13:40;6.82;;;3.67;;
51332;SDS011;37417;48.118;11.734;2023-03-12T05:16:06;5.47;;;4.13;;
51332;SDS011;37417;48.118;11.734;2023-03-12T05:18:33;5.88;;;4.00;;
51332;SDS011;37417;48.118;11.734;2023-03-12T05:21:00;7.30;;;3.88;;
51332;SDS011;37417;48.118;11.734;2023-03-12T05:23:26;5.35;;;3.72;;
51332;SDS011;37417;48.118;11.734;2023-03-12T05:25:52;6.75;;;4.50;;
51332;SDS011;37417;48.118;11.734;2023-03-12T05:28:18;5.05;;;3.80;;
51332;SDS011;37417;48.118;11.734;2023-03-12T05:30:44;4.93;;;3.47;;
51332;SDS011;37417;48.118;11.734;2023-03-12T05:33:10;5.05;;;3.10;;
51332;SDS011;37417;48.118;11.734;2023-03-12T05:35:35;6.25;;;4.35;;
51332;SDS011;37417;48.118;11.734;2023-03-12T05:38:01;8.63;;;5.65;;
51332;SDS011;37417;48.118;11.734;2023-03-12T05:40:26;7.28;;;4.40;;
51332;SDS011;37417;48.118;11.734;2023-03-12T05:42:52;8.40;;;5.55;;
51332;SDS011;37417;48.118;11.734;2023-03-12T05:45:17;8.65;;;5.15;;
51332;SDS011;37417;48.118;11.734;2023-03-12T05:47:43;5.90;;;4.47;;
51332;SDS011;37417;48.118;11.734;2023-03-12T05:50:09;9.50;;;4.68;;
51332;SDS011;37417;48.118;11.734;2023-03-12T05:52:36;5.18;;;3.22;;
51332;SDS011;37417;48.118;11.734;2023-03-12T05:55:02;8.57;;;4.22;;
51332;SDS011;37417;48.118;11.734;2023-03-12T05:57:28;9.18;;;5.05;;
51332;SDS011;37417;48.118;11.734;2023-03-12T05:59:53;4.22;;;3.17;;
51332;SDS011;37417;48.118;11.734;2023-03-12T06:02:18;8.38;;;4.95;;
51332;SDS011;37417;48.118;11.734;2023-03-12T06:04:44;7.18;;;4.45;;
51332;SDS011;37417;48.118;11.734;2023-03-12T06:07:09;7.65;;;4.22;;
51332;SDS011;37417;48.118;11.734;2023-03-12T06:09:35;6.38;;;4.75;;
51332;SDS011;37417;48.118;11.734;2023-03-12T06:12:00;7.65;;;3.53;;
51332;SDS011;37417;48.118;11.734;2023-03-12T06:14:25;4.20;;;2.13;;
51332;SDS011;37417;48.118;11.734;2023-03-12T06:16:51;8.95;;;4.70;;
51332;SDS011;37417;48.118;11.734;2023-03-12T06:19:16;5.18;;;4.55;;
51332;SDS011;37417;48.118;11.734;2023-03-12T06:21:41;2.13;;;1.92;;
51332;SDS011;37417;48.118;11.734;2023-03-12T06:24:07;4.32;;;3.92;;
51332;SDS011;37417;48.118;11.734;2023-03-12T06:26:33;7.65;;;4.90;;
51332;SDS011;37417;48.118;11.734;2023-03-12T06:28:58;6.32;;;4.45;;
51332;SDS011;37417;48.118;11.734;2023-03-12T06:31:23;11.02;;;5.70;;
51332;SDS011;37417;48.118;11.734;2023-03-12T06:33:49;5.88;;;4.43;;
51332;SDS011;37417;48.118;11.734;2023-03-12T06:36:15;5.55;;;3.78;;
51332;SDS011;37417;48.118;11.734;2023-03-12T06:38:41;7.78;;;4.80;;
51332;SDS011;37417;48.118;11.734;2023-03-12T06:41:07;5.63;;;4.45;;
51332;SDS011;37417;48.118;11.734;2023-03-12T06:43:35;7.32;;;5.00;;
51332;SDS011;37417;48.118;11.734;2023-03-12T06:46:02;7.45;;;4.60;;
51332;SDS011;37417;48.118;11.734;2023-03-12T06:48:29;3.30;;;2.47;;
51332;SDS011;37417;48.118;11.734;2023-03-12T06:50:57;6.80;;;4.65;;
51332;SDS011;37417;48.118;11.734;2023-03-12T06:53:23;6.90;;;3.83;;
51332;SDS011;37417;48.118;11.734;2023-03-12T06:55:50;3.20;;;2.33;;
51332;SDS011;37417;48.118;11.734;2023-03-12T06:58:15;4.55;;;3.80;;
51332;SDS011;37417;48.118;11.734;2023-03-12T07:00:41;4.82;;;4.35;;
51332;SDS011;37417;48.118;11.734;2023-03-12T07:03:06;5.57;;;3.97;;
51332;SDS011;37417;48.118;11.734;2023-03-12T07:05:32;5.53;;;3.53;;
51332;SDS011;37417;48.118;11.734;2023-03-12T07:07:57;6.05;;;2.90;;
51332;SDS011;37417;48.118;11.734;2023-03-12T07:10:22;3.58;;;2.72;;
51332;SDS011;37417;48.118;11.734;2023-03-12T07:12:48;10.20;;;1.65;;
51332;SDS011;37417;48.118;11.734;2023-03-12T07:15:13;4.90;;;2.95;;
51332;SDS011;37417;48.118;11.734;2023-03-12T07:17:39;3.55;;;2.50;;
51332;SDS011;37417;48.118;11.734;2023-03-12T07:20:04;2.78;;;2.53;;
51332;SDS011;37417;48.118;11.734;2023-03-12T07:22:30;5.18;;;2.78;;
51332;SDS011;37417;48.118;11.734;2023-03-12T07:24:56;3.53;;;2.53;;
51332;SDS011;37417;48.118;11.734;2023-03-12T07:27:21;4.25;;;2.67;;
51332;SDS011;37417;48.118;11.734;2023-03-12T07:29:47;5.60;;;3.00;;
51332;SDS011;37417;48.118;11.734;2023-03-12T07:32:12;6.03;;;2.63;;
51332;SDS011;37417;48.118;11.734;2023-03-12T07:34:37;5.25;;;2.28;;
51332;SDS011;37417;48.118;11.734;2023-03-12T07:37:03;7.95;;;2.22;;
51332;SDS011;37417;48.118;11.734;2023-03-12T07:39:29;4.20;;;2.25;;
51332;SDS011;37417;48.118;11.734;2023-03-12T07:41:54;6.03;;;2.22;;
51332;SDS011;37417;48.118;11.734;2023-03-12T07:44:19;3.40;;;1.77;;
51332;SDS011;37417;48.118;11.734;2023-03-12T07:46:45;2.50;;;1.85;;
51332;SDS011;37417;48.118;11.734;2023-03-12T07:49:10;6.43;;;2.78;;
51332;SDS011;37417;48.118;11.734;2023-03-12T07:51:35;2.33;;;1.80;;
51332;SDS011;37417;48.118;11.734;2023-03-12T07:54:01;3.33;;;1.77;;
51332;SDS011;37417;48.118;11.734;2023-03-12T07:56:26;1.73;;;1.63;;
51332;SDS011;37417;48.118;11.734;2023-03-12T07:58:52;1.75;;;1.50;;
51332;SDS011;37417;48.118;11.734;2023-03-12T08:01:17;2.25;;;1.73;;
51332;SDS011;37417;48.118;11.734;2023-03-12T08:03:43;2.60;;;1.65;;
51332;SDS011;37417;48.118;11.734;2023-03-12T08:06:08;3.05;;;1.42;;
51332;SDS011;37417;48.118;11.734;2023-03-12T08:08:34;3.28;;;1.63;;
51332;SDS011;37417;48.118;11.734;2023-03-12T08:11:02;2.25;;;1.55;;
51332;SDS011;37417;48.118;11.734;2023-03-12T08:13:28;2.80;;;1.60;;
51332;SDS011;37417;48.118;11.734;2023-03-12T08:15:54;1.67;;;1.15;;
51332;SDS011;37417;48.118;11.734;2023-03-12T08:18:19;1.70;;;1.60;;
51332;SDS011;37417;48.118;11.734;2023-03-12T08:20:48;2.95;;;1.67;;
51332;SDS011;37417;48.118;11.734;2023-03-12T08:23:14;1.58;;;1.48;;
51332;SDS011;37417;48.118;11.734;2023-03-12T08:25:40;3.85;;;1.95;;
51332;SDS011;37417;48.118;11.734;2023-03-12T08:28:05;2.28;;;1.48;;
51332;SDS011;37417;48.118;11.734;2023-03-12T08:30:30;1.80;;;1.50;;
51332;SDS011;37417;48.118;11.734;2023-03-12T08:32:56;2.10;;;1.35;;
51332;SDS011;37417;48.118;11.734;2023-03-12T08:35:22;3.90;;;1.55;;
51332;SDS011;37417;48.118;11.734;2023-03-12T08:37:47;5.35;;;1.80;;
51332;SDS011;37417;48.118;11.734;2023-03-12T08:40:13;1.65;;;1.20;;
51332;SDS011;37417;48.118;11.734;2023-03-12T08:42:39;3.58;;;1.48;;
51332;SDS011;37417;48.118;11.734;2023-03-12T08:45:05;1.52;;;1.13;;
51332;SDS011;37417;48.118;11.734;2023-03-12T08:47:31;1.85;;;1.48;;
51332;SDS011;37417;48.118;11.734;2023-03-12T08:49:57;1.10;;;0.93;;
51332;SDS011;37417;48.118;11.734;2023-03-12T08:52:22;2.47;;;1.10;;
51332;SDS011;37417;48.118;11.734;2023-03-12T08:54:47;1.77;;;1.00;;
51332;SDS011;37417;48.118;11.734;2023-03-12T08:57:13;2.85;;;0.73;;
51332;SDS011;37417;48.118;11.734;2023-03-12T08:59:39;1.15;;;0.88;;
51332;SDS011;37417;48.118;11.734;2023-03-12T09:02:04;4.63;;;1.30;;
51332;SDS011;37417;48.118;11.734;2023-03-12T09:04:30;2.42;;;1.50;;
51332;SDS011;37417;48.118;11.734;2023-03-12T09:06:56;4.22;;;1.50;;
51332;SDS011;37417;48.118;11.734;2023-03-12T09:09:21;2.28;;;1.67;;
51332;SDS011;37417;48.118;11.734;2023-03-12T09:11:46;2.35;;;1.70;;
51332;SDS011;37417;48.118;11.734;2023-03-12T09:14:12;2.13;;;1.40;;
51332;SDS011;37417;48.118;11.734;2023-03-12T09:16:37;4.68;;;1.98;;
51332;SDS011;37417;48.118;11.734;2023-03-12T09:19:02;4.72;;;1.73;;
51332;SDS011;37417;48.118;11.734;2023-03-12T09:21:28;2.40;;;1.70;;
51332;SDS011;37417;48.118;11.734;2023-03-12T09:23:53;3.22;;;1.80;;
51332;SDS011;37417;48.118;11.734;2023-03-12T09:26:19;5.03;;;1.75;;
51332;SDS011;37417;48.118;11.734;2023-03-12T09:28:44;3.00;;;1.40;;
51332;SDS011;37417;48.118;11.734;2023-03-12T09:31:10;0.60;;;0.60;;
51332;SDS011;37417;48.118;11.734;2023-03-12T09:33:37;3.85;;;1.50;;
51332;SDS011;37417;48.118;11.734;2023-03-12T09:36:02;2.55;;;0.77;;
51332;SDS011;37417;48.118;11.734;2023-03-12T09:38:28;3.05;;;1.90;;
51332;SDS011;37417;48.118;11.734;2023-03-12T09:40:55;3.53;;;2.30;;
51332;SDS011;37417;48.118;11.734;2023-03-12T09:46:26;1.92;;;1.45;;
51332;SDS011;37417;48.118;11.734;2023-03-12T09:49:00;1.83;;;1.70;;
51332;SDS011;37417;48.118;11.734;2023-03-12T09:51:31;2.95;;;1.80;;
51332;SDS011;37417;48.118;11.734;2023-03-12T09:54:01;5.53;;;1.80;;
51332;SDS011;37417;48.118;11.734;2023-03-12T09:56:30;2.72;;;1.85;;
51332;SDS011;37417;48.118;11.734;2023-03-12T09:58:57;3.55;;;1.67;;
51332;SDS011;37417;48.118;11.734;2023-03-12T10:01:36;4.15;;;1.50;;
51332;SDS011;37417;48.118;11.734;2023-03-12T10:04:17;2.45;;;1.63;;
51332;SDS011;37417;48.118;11.734;2023-03-12T10:06:54;3.88;;;2.30;;
51332;SDS011;37417;48.118;11.734;2023-03-12T10:23:21;1.67;;;1.27;;
51332;SDS011;37417;48.118;11.734;2023-03-12T10:25:59;3.42;;;2.17;;
51332;SDS011;37417;48.118;11.734;2023-03-12T10:28:44;1.75;;;1.65;;
51332;SDS011;37417;48.118;11.734;2023-03-12T10:31:31;1.95;;;1.77;;
51332;SDS011;37417;48.118;11.734;2023-03-12T10:34:01;2.28;;;1.67;;
51332;SDS011;37417;48.118;11.734;2023-03-12T10:36:35;1.63;;;1.52;;
51332;SDS011;37417;48.118;11.734;2023-03-12T10:39:04;2.25;;;1.75;;
51332;SDS011;37417;48.118;11.734;2023-03-12T10:41:40;2.55;;;1.30;;
51332;SDS011;37417;48.118;11.734;2023-03-12T10:44:08;1.88;;;1.10;;
51332;SDS011;37417;48.118;11.734;2023-03-12T10:46:44;2.10;;;1.65;;
51332;SDS011;37417;48.118;11.734;2023-03-12T10:49:32;1.65;;;1.55;;
51332;SDS011;37417;48.118;11.734;2023-03-12T10:52:03;1.70;;;1.60;;
51332;SDS011;37417;48.118;11.734;2023-03-12T10:57:00;1.55;;;1.10;;
51332;SDS011;37417;48.118;11.734;2023-03-12T10:59:28;1.98;;;1.15;;
51332;SDS011;37417;48.118;11.734;2023-03-12T11:01:56;1.02;;;1.00;;
51332;SDS011;37417;48.118;11.734;2023-03-12T11:04:26;1.25;;;1.13;;
51332;SDS011;37417;48.118;11.734;2023-03-12T11:09:43;1.10;;;1.05;;
51332;SDS011;37417;48.118;11.734;2023-03-12T11:12:28;1.10;;;1.00;;
51332;SDS011;37417;48.118;11.734;2023-03-12T11:14:58;1.42;;;1.33;;
51332;SDS011;37417;48.118;11.734;2023-03-12T11:17:25;1.55;;;1.30;;
51332;SDS011;37417;48.118;11.734;2023-03-12T11:19:52;0.90;;;0.90;;
51332;SDS011;37417;48.118;11.734;2023-03-12T11:22:28;1.23;;;0.93;;
51332;SDS011;37417;48.118;11.734;2023-03-12T11:24:59;1.50;;;1.40;;
51332;SDS011;37417;48.118;11.734;2023-03-12T11:29:54;3.00;;;1.63;;
51332;SDS011;37417;48.118;11.734;2023-03-12T11:32:23;1.67;;;1.35;;
51332;SDS011;37417;48.118;11.734;2023-03-12T11:35:00;1.20;;;1.13;;
51332;SDS011;37417;48.118;11.734;2023-03-12T11:47:35;1.15;;;1.05;;
51332;SDS011;37417;48.118;11.734;2023-03-12T11:50:14;0.90;;;0.85;;
51332;SDS011;37417;48.118;11.734;2023-03-12T11:53:03;1.55;;;1.13;;
51332;SDS011;37417;48.118;11.734;2023-03-12T12:10:12;1.20;;;1.10;;
51332;SDS011;37417;48.118;11.734;2023-03-12T12:12:56;1.55;;;1.17;;
51332;SDS011;37417;48.118;11.734;2023-03-12T12:21:01;0.88;;;0.88;;
51332;SDS011;37417;48.118;11.734;2023-03-12T12:26:11;1.25;;;1.00;;
51332;SDS011;37417;48.118;11.734;2023-03-12T12:28:44;1.20;;;1.10;;
51332;SDS011;37417;48.118;11.734;2023-03-12T12:39:51;1.27;;;1.15;;
51332;SDS011;37417;48.118;11.734;2023-03-12T12:42:23;1.88;;;1.55;;
51332;SDS011;37417;48.118;11.734;2023-03-12T12:44:54;2.65;;;1.33;;
51332;SDS011;37417;48.118;11.734;2023-03-12T12:47:31;5.05;;;1.73;;
51332;SDS011;37417;48.118;11.734;2023-03-12T12:50:28;2.85;;;1.95;;
51332;SDS011;37417;48.118;11.734;2023-03-12T12:53:10;3.78;;;1.98;;
51332;SDS011;37417;48.118;11.734;2023-03-12T12:55:48;2.85;;;1.98;;
51332;SDS011;37417;48.118;11.734;2023-03-12T12:58:53;2.42;;;1.65;;
51332;SDS011;37417;48.118;11.734;2023-03-12T13:01:30;4.20;;;2.47;;
51332;SDS011;37417;48.118;11.734;2023-03-12T13:04:03;3.50;;;1.80;;
51332;SDS011;37417;48.118;11.734;2023-03-12T13:07:31;2.20;;;1.42;;
51332;SDS011;37417;48.118;11.734;2023-03-12T13:09:38;2.90;;;2.08;;
51332;SDS011;37417;48.118;11.734;2023-03-12T13:14:49;2.95;;;2.08;;
51332;SDS011;37417;48.118;11.734;2023-03-12T13:20:14;4.65;;;2.60;;
51332;SDS011;37417;48.118;11.734;2023-03-12T13:30:57;2.78;;;1.83;;
51332;SDS011;37417;48.118;11.734;2023-03-12T13:33:38;4.25;;;2.38;;
51332;SDS011;37417;48.118;11.734;2023-03-12T13:38:57;2.30;;;1.83;;
51332;SDS011;37417;48.118;11.734;2023-03-12T13:41:29;4.38;;;2.88;;
51332;SDS011;37417;48.118;11.734;2023-03-12T13:44:46;2.75;;;2.03;;
51332;SDS011;37417;48.118;11.734;2023-03-12T13:47:15;4.18;;;1.75;;
51332;SDS011;37417;48.118;11.734;2023-03-12T13:49:56;3.50;;;1.83;;
51332;SDS011;37417;48.118;11.734;2023-03-12T13:52:40;5.18;;;1.95;;
51332;SDS011;37417;48.118;11.734;2023-03-12T13:55:24;5.82;;;2.75;;
51332;SDS011;37417;48.118;11.734;2023-03-12T13:58:14;3.10;;;2.28;;
51332;SDS011;37417;48.118;11.734;2023-03-12T14:03:28;2.15;;;1.67;;
51332;SDS011;37417;48.118;11.734;2023-03-12T14:06:07;6.47;;;2.10;;
51332;SDS011;37417;48.118;11.734;2023-03-12T14:16:41;1.75;;;1.48;;
51332;SDS011;37417;48.118;11.734;2023-03-12T14:19:16;2.00;;;1.20;;
51332;SDS011;37417;48.118;11.734;2023-03-12T14:21:49;5.70;;;2.17;;
51332;SDS011;37417;48.118;11.734;2023-03-12T14:26:56;2.00;;;1.50;;
51332;SDS011;37417;48.118;11.734;2023-03-12T14:29:27;4.25;;;1.63;;
51332;SDS011;37417;48.118;11.734;2023-03-12T14:31:56;1.52;;;1.38;;
51332;SDS011;37417;48.118;11.734;2023-03-12T14:34:26;3.63;;;1.85;;
51332;SDS011;37417;48.118;11.734;2023-03-12T14:37:12;5.05;;;1.35;;
51332;SDS011;37417;48.118;11.734;2023-03-12T14:42:19;2.30;;;1.30;;
51332;SDS011;37417;48.118;11.734;2023-03-12T14:47:30;1.88;;;1.60;;
51332;SDS011;37417;48.118;11.734;2023-03-12T14:50:18;5.40;;;1.60;;
51332;SDS011;37417;48.118;11.734;2023-03-12T14:52:45;1.52;;;1.02;;
51332;SDS011;37417;48.118;11.734;2023-03-12T14:55:12;2.22;;;0.80;;
51332;SDS011;37417;48.118;11.734;2023-03-12T14:57:42;1.70;;;1.20;;
51332;SDS011;37417;48.118;11.734;2023-03-12T15:00:13;1.27;;;0.90;;
51332;SDS011;37417;48.118;11.734;2023-03-12T15:05:17;3.10;;;1.15;;
51332;SDS011;37417;48.118;11.734;2023-03-12T15:07:45;1.65;;;0.80;;
51332;SDS011;37417;48.118;11.734;2023-03-12T15:10:22;3.70;;;0.88;;
51332;SDS011;37417;48.118;11.734;2023-03-12T15:12:53;3.28;;;1.10;;
51332;SDS011;37417;48.118;11.734;2023-03-12T15:17:52;2.23;;;0.77;;
51332;SDS011;37417;48.118;11.734;2023-03-12T15:20:18;1.45;;;0.73;;
51332;SDS011;37417;48.118;11.734;2023-03-12T15:22:46;2.65;;;0.88;;
51332;SDS011;37417;48.118;11.734;2023-03-12T15:25:25;0.43;;;0.40;;
51332;SDS011;37417;48.118;11.734;2023-03-12T15:30:39;1.08;;;0.57;;
51332;SDS011;37417;48.118;11.734;2023-03-12T15:35:32;0.50;;;0.50;;
51332;SDS011;37417;48.118;11.734;2023-03-12T15:37:57;1.35;;;0.50;;
51332;SDS011;37417;48.118;11.734;2023-03-12T15:40:24;1.25;;;0.63;;
51332;SDS011;37417;48.118;11.734;2023-03-12T15:42:51;2.95;;;0.75;;
51332;SDS011;37417;48.118;11.734;2023-03-12T15:45:22;1.00;;;0.52;;
51332;SDS011;37417;48.118;11.734;2023-03-12T15:47:51;1.50;;;0.60;;
51332;SDS011;37417;48.118;11.734;2023-03-12T15:50:22;0.57;;;0.40;;
51332;SDS011;37417;48.118;11.734;2023-03-12T15:55:34;0.28;;;0.28;;
51332;SDS011;37417;48.118;11.734;2023-03-12T15:58:00;0.40;;;0.40;;
51332;SDS011;37417;48.118;11.734;2023-03-12T16:05:34;2.03;;;0.43;;
51332;SDS011;37417;48.118;11.734;2023-03-12T16:08:01;1.13;;;0.30;;
51332;SDS011;37417;48.118;11.734;2023-03-12T16:10:38;0.38;;;0.38;;
51332;SDS011;37417;48.118;11.734;2023-03-12T16:13:03;0.22;;;0.22;;
51332;SDS011;37417;48.118;11.734;2023-03-12T16:15:31;0.80;;;0.30;;
51332;SDS011;37417;48.118;11.734;2023-03-12T16:17:58;1.90;;;0.40;;
51332;SDS011;37417;48.118;11.734;2023-03-12T16:20:23;0.30;;;0.30;;
51332;SDS011;37417;48.118;11.734;2023-03-12T16:22:49;1.30;;;0.90;;
51332;SDS011;37417;48.118;11.734;2023-03-12T16:25:15;0.75;;;0.40;;
51332;SDS011;37417;48.118;11.734;2023-03-12T16:27:50;0.73;;;0.50;;
51332;SDS011;37417;48.118;11.734;2023-03-12T16:32:50;0.80;;;0.45;;
51332;SDS011;37417;48.118;11.734;2023-03-12T16:35:16;0.80;;;0.50;;
51332;SDS011;37417;48.118;11.734;2023-03-12T16:37:43;0.43;;;0.43;;
51332;SDS011;37417;48.118;11.734;2023-03-12T16:40:08;0.60;;;0.43;;
51332;SDS011;37417;48.118;11.734;2023-03-12T16:42:35;1.42;;;0.60;;
51332;SDS011;37417;48.118;11.734;2023-03-12T16:45:01;0.57;;;0.50;;
51332;SDS011;37417;48.118;11.734;2023-03-12T16:47:27;0.93;;;0.70;;
51332;SDS011;37417;48.118;11.734;2023-03-12T16:49:54;0.68;;;0.63;;
51332;SDS011;37417;48.118;11.734;2023-03-12T16:52:20;3.30;;;0.88;;
51332;SDS011;37417;48.118;11.734;2023-03-12T16:54:48;4.82;;;0.82;;